sensor_id;sensor_type;location;lat;lon;timestamp;temperature;humidity
83828;DHT22;74656;48.870;12.562;2024-01-10T00:02:22;-6.00;75.50
83828;DHT22;74656;48.870;12.562;2024-01-10T00:05:24;-6.00;75.50
83828;DHT22;74656;48.870;12.562;2024-01-10T00:08:26;-6.00;75.40
83828;DHT22;74656;48.870;12.562;2024-01-10T00:11:28;-6.00;75.20
83828;DHT22;74656;48.870;12.562;2024-01-10T00:14:34;-6.00;75.20
83828;DHT22;74656;48.870;12.562;2024-01-10T00:17:36;-6.00;75.50
83828;DHT22;74656;48.870;12.562;2024-01-10T00:20:37;-6.00;75.70
83828;DHT22;74656;48.870;12.562;2024-01-10T00:23:39;-6.00;75.60
83828;DHT22;74656;48.870;12.562;2024-01-10T00:26:41;-6.10;75.40
83828;DHT22;74656;48.870;12.562;2024-01-10T00:29:42;-6.20;75.90
83828;DHT22;74656;48.870;12.562;2024-01-10T00:32:44;-6.10;76.10
83828;DHT22;74656;48.870;12.562;2024-01-10T00:35:46;-6.20;76.10
83828;DHT22;74656;48.870;12.562;2024-01-10T00:38:48;-6.30;76.60
83828;DHT22;74656;48.870;12.562;2024-01-10T00:41:50;-6.40;76.80
83828;DHT22;74656;48.870;12.562;2024-01-10T00:44:52;-6.40;77.00
83828;DHT22;74656;48.870;12.562;2024-01-10T00:47:54;-6.40;77.40
83828;DHT22;74656;48.870;12.562;2024-01-10T00:50:56;-6.50;77.80
83828;DHT22;74656;48.870;12.562;2024-01-10T00:53:58;-6.40;78.20
83828;DHT22;74656;48.870;12.562;2024-01-10T00:57:00;-6.40;78.20
83828;DHT22;74656;48.870;12.562;2024-01-10T01:00:02;-6.40;78.10
83828;DHT22;74656;48.870;12.562;2024-01-10T01:03:05;-6.50;77.90
83828;DHT22;74656;48.870;12.562;2024-01-10T01:06:08;-6.50;77.90
83828;DHT22;74656;48.870;12.562;2024-01-10T01:09:10;-6.50;77.60
83828;DHT22;74656;48.870;12.562;2024-01-10T01:12:12;-6.60;77.60
83828;DHT22;74656;48.870;12.562;2024-01-10T01:15:14;-6.50;77.50
83828;DHT22;74656;48.870;12.562;2024-01-10T01:18:16;-6.50;77.40
83828;DHT22;74656;48.870;12.562;2024-01-10T01:21:19;-6.50;76.90
83828;DHT22;74656;48.870;12.562;2024-01-10T01:24:20;-6.60;76.70
83828;DHT22;74656;48.870;12.562;2024-01-10T01:27:23;-6.60;77.00
83828;DHT22;74656;48.870;12.562;2024-01-10T01:30:24;-6.50;76.90
83828;DHT22;74656;48.870;12.562;2024-01-10T01:33:27;-6.50;76.80
83828;DHT22;74656;48.870;12.562;2024-01-10T01:36:29;-6.60;76.70
83828;DHT22;74656;48.870;12.562;2024-01-10T01:39:31;-6.60;76.80
83828;DHT22;74656;48.870;12.562;2024-01-10T01:42:32;-6.60;77.00
83828;DHT22;74656;48.870;12.562;2024-01-10T01:45:35;-6.60;77.20
83828;DHT22;74656;48.870;12.562;2024-01-10T01:48:37;-6.70;77.30
83828;DHT22;74656;48.870;12.562;2024-01-10T01:51:40;-6.70;77.80
83828;DHT22;74656;48.870;12.562;2024-01-10T01:54:42;-6.60;77.80
83828;DHT22;74656;48.870;12.562;2024-01-10T01:57:44;-6.60;77.50
83828;DHT22;74656;48.870;12.562;2024-01-10T02:00:46;-6.60;77.30
83828;DHT22;74656;48.870;12.562;2024-01-10T02:03:49;-6.70;77.30
83828;DHT22;74656;48.870;12.562;2024-01-10T02:06:52;-6.70;77.50
83828;DHT22;74656;48.870;12.562;2024-01-10T02:09:54;-6.80;77.80
83828;DHT22;74656;48.870;12.562;2024-01-10T02:12:56;-6.80;77.90
83828;DHT22;74656;48.870;12.562;2024-01-10T02:15:59;-6.80;78.00
83828;DHT22;74656;48.870;12.562;2024-01-10T02:19:01;-6.70;78.00
83828;DHT22;74656;48.870;12.562;2024-01-10T02:22:03;-6.70;77.70
83828;DHT22;74656;48.870;12.562;2024-01-10T02:25:10;-6.70;77.50
83828;DHT22;74656;48.870;12.562;2024-01-10T02:28:12;-6.80;77.50
83828;DHT22;74656;48.870;12.562;2024-01-10T02:31:14;-6.80;77.60
83828;DHT22;74656;48.870;12.562;2024-01-10T02:34:16;-6.90;77.80
83828;DHT22;74656;48.870;12.562;2024-01-10T02:37:18;-6.90;78.10
83828;DHT22;74656;48.870;12.562;2024-01-10T02:40:21;-7.00;78.40
83828;DHT22;74656;48.870;12.562;2024-01-10T02:43:23;-6.90;78.60
83828;DHT22;74656;48.870;12.562;2024-01-10T02:46:25;-7.00;78.60
83828;DHT22;74656;48.870;12.562;2024-01-10T02:49:27;-7.00;78.70
83828;DHT22;74656;48.870;12.562;2024-01-10T02:52:29;-7.00;78.90
83828;DHT22;74656;48.870;12.562;2024-01-10T02:55:31;-7.00;79.20
83828;DHT22;74656;48.870;12.562;2024-01-10T02:58:33;-7.00;79.40
83828;DHT22;74656;48.870;12.562;2024-01-10T03:01:36;-7.00;79.40
83828;DHT22;74656;48.870;12.562;2024-01-10T03:04:38;-7.00;79.60
83828;DHT22;74656;48.870;12.562;2024-01-10T03:07:40;-7.00;79.60
83828;DHT22;74656;48.870;12.562;2024-01-10T03:10:43;-7.00;79.50
83828;DHT22;74656;48.870;12.562;2024-01-10T03:13:46;-7.00;79.50
83828;DHT22;74656;48.870;12.562;2024-01-10T03:16:49;-7.10;79.70
83828;DHT22;74656;48.870;12.562;2024-01-10T03:19:51;-7.00;79.90
83828;DHT22;74656;48.870;12.562;2024-01-10T03:22:53;-7.00;79.90
83828;DHT22;74656;48.870;12.562;2024-01-10T03:25:58;-7.00;80.20
83828;DHT22;74656;48.870;12.562;2024-01-10T03:29:00;-7.00;79.90
83828;DHT22;74656;48.870;12.562;2024-01-10T03:32:01;-7.10;79.80
83828;DHT22;74656;48.870;12.562;2024-01-10T03:35:04;-7.10;79.90
83828;DHT22;74656;48.870;12.562;2024-01-10T03:38:07;-7.10;79.90
83828;DHT22;74656;48.870;12.562;2024-01-10T03:41:19;-7.10;80.10
83828;DHT22;74656;48.870;12.562;2024-01-10T03:44:21;-7.10;80.30
83828;DHT22;74656;48.870;12.562;2024-01-10T03:47:23;-7.10;80.20
83828;DHT22;74656;48.870;12.562;2024-01-10T03:50:25;-7.10;80.20
83828;DHT22;74656;48.870;12.562;2024-01-10T03:53:27;-7.10;80.30
83828;DHT22;74656;48.870;12.562;2024-01-10T03:56:29;-7.10;80.40
83828;DHT22;74656;48.870;12.562;2024-01-10T03:59:35;-7.20;80.20
83828;DHT22;74656;48.870;12.562;2024-01-10T04:02:37;-7.20;80.20
83828;DHT22;74656;48.870;12.562;2024-01-10T04:05:41;-7.20;80.10
83828;DHT22;74656;48.870;12.562;2024-01-10T04:08:43;-7.20;80.00
83828;DHT22;74656;48.870;12.562;2024-01-10T04:11:45;-7.20;80.00
83828;DHT22;74656;48.870;12.562;2024-01-10T04:14:47;-7.20;80.20
83828;DHT22;74656;48.870;12.562;2024-01-10T04:17:49;-7.20;80.30
83828;DHT22;74656;48.870;12.562;2024-01-10T04:20:52;-7.20;80.10
83828;DHT22;74656;48.870;12.562;2024-01-10T04:23:54;-7.20;79.90
83828;DHT22;74656;48.870;12.562;2024-01-10T04:26:56;-7.30;79.90
83828;DHT22;74656;48.870;12.562;2024-01-10T04:29:58;-7.20;80.20
83828;DHT22;74656;48.870;12.562;2024-01-10T04:33:00;-7.30;80.20
83828;DHT22;74656;48.870;12.562;2024-01-10T04:36:02;-7.30;80.20
83828;DHT22;74656;48.870;12.562;2024-01-10T04:39:04;-7.20;80.70
83828;DHT22;74656;48.870;12.562;2024-01-10T04:42:07;-7.10;80.90
83828;DHT22;74656;48.870;12.562;2024-01-10T04:45:09;-7.10;80.70
83828;DHT22;74656;48.870;12.562;2024-01-10T04:48:11;-7.20;80.30
83828;DHT22;74656;48.870;12.562;2024-01-10T04:51:14;-7.20;80.10
83828;DHT22;74656;48.870;12.562;2024-01-10T04:54:16;-7.20;79.90
83828;DHT22;74656;48.870;12.562;2024-01-10T04:57:18;-7.30;79.90
83828;DHT22;74656;48.870;12.562;2024-01-10T05:00:21;-7.30;79.90
83828;DHT22;74656;48.870;12.562;2024-01-10T05:03:23;-7.30;79.90
83828;DHT22;74656;48.870;12.562;2024-01-10T05:06:24;-7.30;79.90
83828;DHT22;74656;48.870;12.562;2024-01-10T05:09:26;-7.40;79.90
83828;DHT22;74656;48.870;12.562;2024-01-10T05:12:28;-7.30;79.90
83828;DHT22;74656;48.870;12.562;2024-01-10T05:15:30;-7.40;80.00
83828;DHT22;74656;48.870;12.562;2024-01-10T05:18:32;-7.40;80.00
83828;DHT22;74656;48.870;12.562;2024-01-10T05:21:34;-7.40;80.00
83828;DHT22;74656;48.870;12.562;2024-01-10T05:24:36;-7.40;80.10
83828;DHT22;74656;48.870;12.562;2024-01-10T05:27:38;-7.40;80.00
83828;DHT22;74656;48.870;12.562;2024-01-10T05:30:40;-7.40;80.10
83828;DHT22;74656;48.870;12.562;2024-01-10T05:33:42;-7.40;80.20
83828;DHT22;74656;48.870;12.562;2024-01-10T05:36:45;-7.40;80.20
83828;DHT22;74656;48.870;12.562;2024-01-10T05:39:47;-7.40;80.30
83828;DHT22;74656;48.870;12.562;2024-01-10T05:42:49;-7.40;80.20
83828;DHT22;74656;48.870;12.562;2024-01-10T05:45:52;-7.40;80.40
83828;DHT22;74656;48.870;12.562;2024-01-10T05:48:54;-7.40;80.40
83828;DHT22;74656;48.870;12.562;2024-01-10T05:51:56;-7.40;80.40
83828;DHT22;74656;48.870;12.562;2024-01-10T05:54:59;-7.40;80.30
83828;DHT22;74656;48.870;12.562;2024-01-10T05:58:01;-7.40;80.20
83828;DHT22;74656;48.870;12.562;2024-01-10T06:01:04;-7.40;80.40
83828;DHT22;74656;48.870;12.562;2024-01-10T06:04:06;-7.40;80.30
83828;DHT22;74656;48.870;12.562;2024-01-10T06:07:08;-7.40;80.40
83828;DHT22;74656;48.870;12.562;2024-01-10T06:10:10;-7.30;80.50
83828;DHT22;74656;48.870;12.562;2024-01-10T06:13:12;-7.20;80.60
83828;DHT22;74656;48.870;12.562;2024-01-10T06:16:14;-7.20;80.60
83828;DHT22;74656;48.870;12.562;2024-01-10T06:19:16;-7.20;80.30
83828;DHT22;74656;48.870;12.562;2024-01-10T06:22:18;-7.20;80.20
83828;DHT22;74656;48.870;12.562;2024-01-10T06:25:20;-7.10;80.30
83828;DHT22;74656;48.870;12.562;2024-01-10T06:28:22;-7.10;80.00
83828;DHT22;74656;48.870;12.562;2024-01-10T06:31:25;-7.00;79.50
83828;DHT22;74656;48.870;12.562;2024-01-10T06:34:27;-7.00;79.20
83828;DHT22;74656;48.870;12.562;2024-01-10T06:37:29;-7.00;78.90
83828;DHT22;74656;48.870;12.562;2024-01-10T06:40:34;-7.00;78.70
83828;DHT22;74656;48.870;12.562;2024-01-10T06:43:38;-6.80;78.80
83828;DHT22;74656;48.870;12.562;2024-01-10T06:46:40;-6.70;79.10
83828;DHT22;74656;48.870;12.562;2024-01-10T06:49:42;-6.70;79.70
83828;DHT22;74656;48.870;12.562;2024-01-10T06:52:44;-6.60;79.80
83828;DHT22;74656;48.870;12.562;2024-01-10T06:55:46;-6.50;79.60
83828;DHT22;74656;48.870;12.562;2024-01-10T06:58:48;-6.40;79.90
83828;DHT22;74656;48.870;12.562;2024-01-10T07:01:54;-6.40;79.90
83828;DHT22;74656;48.870;12.562;2024-01-10T07:04:56;-6.30;80.10
83828;DHT22;74656;48.870;12.562;2024-01-10T07:07:59;-6.30;79.90
83828;DHT22;74656;48.870;12.562;2024-01-10T07:11:01;-6.20;79.30
83828;DHT22;74656;48.870;12.562;2024-01-10T07:14:03;-6.20;78.40
83828;DHT22;74656;48.870;12.562;2024-01-10T07:17:06;-6.20;77.60
83828;DHT22;74656;48.870;12.562;2024-01-10T07:20:08;-6.10;77.40
83828;DHT22;74656;48.870;12.562;2024-01-10T07:23:11;-6.10;76.80
83828;DHT22;74656;48.870;12.562;2024-01-10T07:26:13;-6.10;76.40
83828;DHT22;74656;48.870;12.562;2024-01-10T07:29:15;-6.10;75.80
83828;DHT22;74656;48.870;12.562;2024-01-10T07:32:18;-6.10;75.20
83828;DHT22;74656;48.870;12.562;2024-01-10T07:35:20;-6.00;74.90
83828;DHT22;74656;48.870;12.562;2024-01-10T07:38:22;-6.00;74.60
83828;DHT22;74656;48.870;12.562;2024-01-10T07:41:24;-5.90;74.30
83828;DHT22;74656;48.870;12.562;2024-01-10T07:44:26;-5.80;74.10
83828;DHT22;74656;48.870;12.562;2024-01-10T07:47:28;-5.70;74.10
83828;DHT22;74656;48.870;12.562;2024-01-10T07:50:30;-5.60;74.00
83828;DHT22;74656;48.870;12.562;2024-01-10T07:53:33;-5.60;73.50
83828;DHT22;74656;48.870;12.562;2024-01-10T07:56:35;-5.50;72.70
83828;DHT22;74656;48.870;12.562;2024-01-10T07:59:37;-5.50;72.20
83828;DHT22;74656;48.870;12.562;2024-01-10T08:02:40;-5.50;72.30
83828;DHT22;74656;48.870;12.562;2024-01-10T08:05:42;-5.40;72.20
83828;DHT22;74656;48.870;12.562;2024-01-10T08:08:44;-5.30;71.80
83828;DHT22;74656;48.870;12.562;2024-01-10T08:11:47;-5.10;71.90
83828;DHT22;74656;48.870;12.562;2024-01-10T08:14:49;-5.00;71.00
83828;DHT22;74656;48.870;12.562;2024-01-10T08:17:51;-4.80;70.80
83828;DHT22;74656;48.870;12.562;2024-01-10T08:20:52;-4.70;70.30
83828;DHT22;74656;48.870;12.562;2024-01-10T08:23:54;-4.70;69.60
83828;DHT22;74656;48.870;12.562;2024-01-10T08:26:56;-4.60;69.80
83828;DHT22;74656;48.870;12.562;2024-01-10T08:29:58;-4.50;69.80
83828;DHT22;74656;48.870;12.562;2024-01-10T08:33:00;-4.40;68.50
83828;DHT22;74656;48.870;12.562;2024-01-10T08:36:02;-4.40;69.00
83828;DHT22;74656;48.870;12.562;2024-01-10T08:39:05;-4.20;70.00
83828;DHT22;74656;48.870;12.562;2024-01-10T08:42:07;-4.10;68.80
83828;DHT22;74656;48.870;12.562;2024-01-10T08:45:10;-4.00;69.30
83828;DHT22;74656;48.870;12.562;2024-01-10T08:48:12;-3.90;68.50
83828;DHT22;74656;48.870;12.562;2024-01-10T08:51:14;-3.80;68.10
83828;DHT22;74656;48.870;12.562;2024-01-10T08:54:16;-3.80;67.30
83828;DHT22;74656;48.870;12.562;2024-01-10T08:57:17;-3.70;66.10
83828;DHT22;74656;48.870;12.562;2024-01-10T09:00:19;-3.50;66.60
83828;DHT22;74656;48.870;12.562;2024-01-10T09:03:21;-3.40;65.30
83828;DHT22;74656;48.870;12.562;2024-01-10T09:06:22;-3.20;65.70
83828;DHT22;74656;48.870;12.562;2024-01-10T09:09:24;-3.00;65.60
83828;DHT22;74656;48.870;12.562;2024-01-10T09:12:26;-2.90;64.40
83828;DHT22;74656;48.870;12.562;2024-01-10T09:15:28;-2.80;64.90
83828;DHT22;74656;48.870;12.562;2024-01-10T09:18:30;-2.30;71.60
83828;DHT22;74656;48.870;12.562;2024-01-10T09:21:32;-1.50;70.70
83828;DHT22;74656;48.870;12.562;2024-01-10T09:24:34;-1.50;66.20
83828;DHT22;74656;48.870;12.562;2024-01-10T09:27:35;-1.50;62.90
83828;DHT22;74656;48.870;12.562;2024-01-10T09:30:37;-1.60;60.90
83828;DHT22;74656;48.870;12.562;2024-01-10T09:33:43;-1.70;59.40
83828;DHT22;74656;48.870;12.562;2024-01-10T09:36:45;-1.80;58.50
83828;DHT22;74656;48.870;12.562;2024-01-10T09:39:47;-1.80;59.60
83828;DHT22;74656;48.870;12.562;2024-01-10T09:42:49;-1.70;59.50
83828;DHT22;74656;48.870;12.562;2024-01-10T09:45:53;-1.40;59.80
83828;DHT22;74656;48.870;12.562;2024-01-10T09:48:55;-1.20;59.20
83828;DHT22;74656;48.870;12.562;2024-01-10T09:52:04;-1.20;58.50
83828;DHT22;74656;48.870;12.562;2024-01-10T09:55:07;-1.00;58.50
83828;DHT22;74656;48.870;12.562;2024-01-10T09:58:10;-1.00;57.60
83828;DHT22;74656;48.870;12.562;2024-01-10T10:01:12;-0.80;57.80
83828;DHT22;74656;48.870;12.562;2024-01-10T10:04:15;-0.70;57.90
83828;DHT22;74656;48.870;12.562;2024-01-10T10:07:19;-0.70;56.80
83828;DHT22;74656;48.870;12.562;2024-01-10T10:10:21;-0.40;57.40
83828;DHT22;74656;48.870;12.562;2024-01-10T10:13:27;-0.10;56.70
83828;DHT22;74656;48.870;12.562;2024-01-10T10:16:29;0.30;55.20
83828;DHT22;74656;48.870;12.562;2024-01-10T10:19:31;1.30;52.40
83828;DHT22;74656;48.870;12.562;2024-01-10T10:23:01;1.90;50.30
83828;DHT22;74656;48.870;12.562;2024-01-10T10:26:16;2.50;47.80
83828;DHT22;74656;48.870;12.562;2024-01-10T10:29:19;3.10;46.20
83828;DHT22;74656;48.870;12.562;2024-01-10T10:32:21;4.00;45.70
83828;DHT22;74656;48.870;12.562;2024-01-10T10:35:23;5.00;43.50
83828;DHT22;74656;48.870;12.562;2024-01-10T10:38:39;5.70;39.80
83828;DHT22;74656;48.870;12.562;2024-01-10T10:41:42;7.10;37.70
83828;DHT22;74656;48.870;12.562;2024-01-10T10:44:44;7.00;35.50
83828;DHT22;74656;48.870;12.562;2024-01-10T10:47:50;6.20;36.20
83828;DHT22;74656;48.870;12.562;2024-01-10T10:51:11;5.90;37.90
83828;DHT22;74656;48.870;12.562;2024-01-10T10:54:14;6.30;38.40
83828;DHT22;74656;48.870;12.562;2024-01-10T10:57:18;7.40;34.90
83828;DHT22;74656;48.870;12.562;2024-01-10T11:00:21;6.10;36.40
83828;DHT22;74656;48.870;12.562;2024-01-10T11:03:23;7.20;35.50
83828;DHT22;74656;48.870;12.562;2024-01-10T11:06:27;7.80;34.20
83828;DHT22;74656;48.870;12.562;2024-01-10T11:09:29;8.30;31.70
83828;DHT22;74656;48.870;12.562;2024-01-10T11:12:49;8.80;31.80
83828;DHT22;74656;48.870;12.562;2024-01-10T11:17:06;7.80;32.10
83828;DHT22;74656;48.870;12.562;2024-01-10T11:20:13;8.30;31.90
83828;DHT22;74656;48.870;12.562;2024-01-10T11:26:41;9.30;31.70
83828;DHT22;74656;48.870;12.562;2024-01-10T11:29:45;10.40;30.50
83828;DHT22;74656;48.870;12.562;2024-01-10T11:32:48;10.30;27.80
83828;DHT22;74656;48.870;12.562;2024-01-10T11:36:27;9.20;31.10
83828;DHT22;74656;48.870;12.562;2024-01-10T11:39:29;9.60;31.00
83828;DHT22;74656;48.870;12.562;2024-01-10T11:42:41;9.60;34.70
83828;DHT22;74656;48.870;12.562;2024-01-10T11:45:55;11.00;28.80
83828;DHT22;74656;48.870;12.562;2024-01-10T11:48:58;9.40;29.70
83828;DHT22;74656;48.870;12.562;2024-01-10T11:52:01;9.50;31.00
83828;DHT22;74656;48.870;12.562;2024-01-10T11:55:03;9.20;29.40
83828;DHT22;74656;48.870;12.562;2024-01-10T11:58:08;9.80;30.20
83828;DHT22;74656;48.870;12.562;2024-01-10T12:01:11;9.40;29.50
83828;DHT22;74656;48.870;12.562;2024-01-10T12:04:14;9.90;29.30
83828;DHT22;74656;48.870;12.562;2024-01-10T12:07:28;9.70;30.60
83828;DHT22;74656;48.870;12.562;2024-01-10T12:10:30;9.80;30.70
83828;DHT22;74656;48.870;12.562;2024-01-10T12:13:31;9.30;29.90
83828;DHT22;74656;48.870;12.562;2024-01-10T12:16:33;9.90;30.50
83828;DHT22;74656;48.870;12.562;2024-01-10T12:19:35;9.90;31.10
83828;DHT22;74656;48.870;12.562;2024-01-10T12:22:38;9.50;29.70
83828;DHT22;74656;48.870;12.562;2024-01-10T12:25:39;10.60;28.60
83828;DHT22;74656;48.870;12.562;2024-01-10T12:28:53;10.90;27.90
83828;DHT22;74656;48.870;12.562;2024-01-10T12:31:55;13.40;27.20
83828;DHT22;74656;48.870;12.562;2024-01-10T12:35:04;12.90;24.70
83828;DHT22;74656;48.870;12.562;2024-01-10T12:38:06;11.10;26.10
83828;DHT22;74656;48.870;12.562;2024-01-10T12:41:08;9.90;28.60
83828;DHT22;74656;48.870;12.562;2024-01-10T12:44:10;10.10;29.40
83828;DHT22;74656;48.870;12.562;2024-01-10T12:47:19;10.20;29.20
83828;DHT22;74656;48.870;12.562;2024-01-10T12:50:22;10.30;29.40
83828;DHT22;74656;48.870;12.562;2024-01-10T12:53:24;10.60;30.40
83828;DHT22;74656;48.870;12.562;2024-01-10T12:56:27;10.70;28.40
83828;DHT22;74656;48.870;12.562;2024-01-10T12:59:29;11.30;28.20
83828;DHT22;74656;48.870;12.562;2024-01-10T13:02:31;12.80;25.30
83828;DHT22;74656;48.870;12.562;2024-01-10T13:05:33;11.60;25.50
83828;DHT22;74656;48.870;12.562;2024-01-10T13:08:37;10.30;27.80
83828;DHT22;74656;48.870;12.562;2024-01-10T13:11:39;10.40;28.20
83828;DHT22;74656;48.870;12.562;2024-01-10T13:14:40;10.80;32.20
83828;DHT22;74656;48.870;12.562;2024-01-10T13:17:43;10.50;28.80
83828;DHT22;74656;48.870;12.562;2024-01-10T13:20:45;10.70;27.90
83828;DHT22;74656;48.870;12.562;2024-01-10T13:23:47;11.10;28.10
83828;DHT22;74656;48.870;12.562;2024-01-10T13:26:48;11.20;27.00
83828;DHT22;74656;48.870;12.562;2024-01-10T13:29:50;11.00;26.70
83828;DHT22;74656;48.870;12.562;2024-01-10T13:32:52;10.30;28.50
83828;DHT22;74656;48.870;12.562;2024-01-10T13:35:54;10.60;28.80
83828;DHT22;74656;48.870;12.562;2024-01-10T13:38:56;10.60;29.00
83828;DHT22;74656;48.870;12.562;2024-01-10T13:41:58;10.50;28.90
83828;DHT22;74656;48.870;12.562;2024-01-10T13:44:59;10.50;28.90
83828;DHT22;74656;48.870;12.562;2024-01-10T13:48:01;10.50;28.90
83828;DHT22;74656;48.870;12.562;2024-01-10T13:51:03;11.40;28.80
83828;DHT22;74656;48.870;12.562;2024-01-10T13:54:05;11.40;27.40
83828;DHT22;74656;48.870;12.562;2024-01-10T13:57:07;10.30;29.00
83828;DHT22;74656;48.870;12.562;2024-01-10T14:00:09;9.80;30.00
83828;DHT22;74656;48.870;12.562;2024-01-10T14:03:13;10.50;28.70
83828;DHT22;74656;48.870;12.562;2024-01-10T14:06:16;11.20;26.20
83828;DHT22;74656;48.870;12.562;2024-01-10T14:09:18;10.30;26.00
83828;DHT22;74656;48.870;12.562;2024-01-10T14:12:20;9.50;27.70
83828;DHT22;74656;48.870;12.562;2024-01-10T14:15:22;10.20;27.60
83828;DHT22;74656;48.870;12.562;2024-01-10T14:18:24;10.10;27.30
83828;DHT22;74656;48.870;12.562;2024-01-10T14:21:26;9.40;29.00
83828;DHT22;74656;48.870;12.562;2024-01-10T14:24:28;9.30;30.40
83828;DHT22;74656;48.870;12.562;2024-01-10T14:27:29;9.20;30.10
83828;DHT22;74656;48.870;12.562;2024-01-10T14:30:31;9.10;30.00
83828;DHT22;74656;48.870;12.562;2024-01-10T14:33:33;8.80;31.40
83828;DHT22;74656;48.870;12.562;2024-01-10T14:36:37;8.70;31.20
83828;DHT22;74656;48.870;12.562;2024-01-10T14:39:38;8.40;31.50
83828;DHT22;74656;48.870;12.562;2024-01-10T14:42:40;8.10;31.60
83828;DHT22;74656;48.870;12.562;2024-01-10T14:45:42;7.80;32.10
83828;DHT22;74656;48.870;12.562;2024-01-10T14:48:44;7.70;33.00
83828;DHT22;74656;48.870;12.562;2024-01-10T14:51:46;7.40;33.50
83828;DHT22;74656;48.870;12.562;2024-01-10T14:54:48;8.00;44.20
83828;DHT22;74656;48.870;12.562;2024-01-10T14:57:50;7.20;35.80
83828;DHT22;74656;48.870;12.562;2024-01-10T15:00:52;5.90;35.80
83828;DHT22;74656;48.870;12.562;2024-01-10T15:03:53;5.20;37.60
83828;DHT22;74656;48.870;12.562;2024-01-10T15:06:55;4.60;39.60
83828;DHT22;74656;48.870;12.562;2024-01-10T15:09:57;4.40;40.00
83828;DHT22;74656;48.870;12.562;2024-01-10T15:12:59;3.60;40.80
83828;DHT22;74656;48.870;12.562;2024-01-10T15:16:00;3.10;42.50
83828;DHT22;74656;48.870;12.562;2024-01-10T15:19:02;2.60;44.50
83828;DHT22;74656;48.870;12.562;2024-01-10T15:22:05;2.30;45.20
83828;DHT22;74656;48.870;12.562;2024-01-10T15:25:08;1.90;46.40
83828;DHT22;74656;48.870;12.562;2024-01-10T15:28:10;1.50;47.30
83828;DHT22;74656;48.870;12.562;2024-01-10T15:31:18;1.20;48.60
83828;DHT22;74656;48.870;12.562;2024-01-10T15:34:20;1.10;51.30
83828;DHT22;74656;48.870;12.562;2024-01-10T15:37:22;0.90;52.20
83828;DHT22;74656;48.870;12.562;2024-01-10T15:40:23;0.70;52.30
83828;DHT22;74656;48.870;12.562;2024-01-10T15:43:25;0.50;51.70
83828;DHT22;74656;48.870;12.562;2024-01-10T15:46:27;0.30;51.60
83828;DHT22;74656;48.870;12.562;2024-01-10T15:49:28;0.10;52.30
83828;DHT22;74656;48.870;12.562;2024-01-10T15:52:30;0.00;53.60
83828;DHT22;74656;48.870;12.562;2024-01-10T15:55:32;-0.10;53.90
83828;DHT22;74656;48.870;12.562;2024-01-10T15:58:34;-0.30;53.90
83828;DHT22;74656;48.870;12.562;2024-01-10T16:01:36;-0.40;54.20
83828;DHT22;74656;48.870;12.562;2024-01-10T16:04:38;-0.60;55.00
83828;DHT22;74656;48.870;12.562;2024-01-10T16:07:40;-0.70;55.60
83828;DHT22;74656;48.870;12.562;2024-01-10T16:10:42;-0.80;56.40
83828;DHT22;74656;48.870;12.562;2024-01-10T16:13:44;-0.90;56.40
83828;DHT22;74656;48.870;12.562;2024-01-10T16:16:45;-1.10;57.20
83828;DHT22;74656;48.870;12.562;2024-01-10T16:19:47;-1.20;58.00
83828;DHT22;74656;48.870;12.562;2024-01-10T16:22:49;-1.30;58.60
83828;DHT22;74656;48.870;12.562;2024-01-10T16:25:51;-1.30;59.60
83828;DHT22;74656;48.870;12.562;2024-01-10T16:28:53;-1.30;59.60
83828;DHT22;74656;48.870;12.562;2024-01-10T16:31:55;-1.30;59.50
83828;DHT22;74656;48.870;12.562;2024-01-10T16:34:57;-1.40;59.60
83828;DHT22;74656;48.870;12.562;2024-01-10T16:37:59;-1.50;60.40
83828;DHT22;74656;48.870;12.562;2024-01-10T16:41:01;-1.50;60.00
83828;DHT22;74656;48.870;12.562;2024-01-10T16:44:03;-1.60;59.60
83828;DHT22;74656;48.870;12.562;2024-01-10T16:47:08;-1.70;60.40
83828;DHT22;74656;48.870;12.562;2024-01-10T16:50:11;-1.70;62.00
83828;DHT22;74656;48.870;12.562;2024-01-10T16:53:12;-1.70;61.70
83828;DHT22;74656;48.870;12.562;2024-01-10T16:56:14;-1.80;60.40
83828;DHT22;74656;48.870;12.562;2024-01-10T16:59:16;-1.80;60.70
83828;DHT22;74656;48.870;12.562;2024-01-10T17:02:18;-1.90;60.90
83828;DHT22;74656;48.870;12.562;2024-01-10T17:05:20;-1.90;61.00
83828;DHT22;74656;48.870;12.562;2024-01-10T17:08:22;-2.00;60.90
83828;DHT22;74656;48.870;12.562;2024-01-10T17:11:24;-2.10;61.10
83828;DHT22;74656;48.870;12.562;2024-01-10T17:14:26;-2.20;61.00
83828;DHT22;74656;48.870;12.562;2024-01-10T17:17:28;-2.30;61.40
83828;DHT22;74656;48.870;12.562;2024-01-10T17:20:30;-2.30;61.80
83828;DHT22;74656;48.870;12.562;2024-01-10T17:23:31;-2.20;61.50
83828;DHT22;74656;48.870;12.562;2024-01-10T17:26:34;-2.30;61.70
83828;DHT22;74656;48.870;12.562;2024-01-10T17:29:35;-2.50;61.90
83828;DHT22;74656;48.870;12.562;2024-01-10T17:32:37;-2.50;62.60
83828;DHT22;74656;48.870;12.562;2024-01-10T17:35:39;-2.60;62.50
83828;DHT22;74656;48.870;12.562;2024-01-10T17:38:41;-2.70;62.90
83828;DHT22;74656;48.870;12.562;2024-01-10T17:41:43;-2.80;63.40
83828;DHT22;74656;48.870;12.562;2024-01-10T17:44:45;-2.80;64.00
83828;DHT22;74656;48.870;12.562;2024-01-10T17:47:47;-2.80;63.90
83828;DHT22;74656;48.870;12.562;2024-01-10T17:50:49;-2.90;63.80
83828;DHT22;74656;48.870;12.562;2024-01-10T17:53:51;-2.90;64.00
83828;DHT22;74656;48.870;12.562;2024-01-10T17:56:53;-3.00;64.40
83828;DHT22;74656;48.870;12.562;2024-01-10T17:59:55;-3.10;65.20
83828;DHT22;74656;48.870;12.562;2024-01-10T18:02:57;-3.10;65.90
83828;DHT22;74656;48.870;12.562;2024-01-10T18:05:59;-3.10;66.30
83828;DHT22;74656;48.870;12.562;2024-01-10T18:09:02;-3.20;66.80
83828;DHT22;74656;48.870;12.562;2024-01-10T18:12:04;-3.20;67.30
83828;DHT22;74656;48.870;12.562;2024-01-10T18:15:06;-3.10;67.30
83828;DHT22;74656;48.870;12.562;2024-01-10T18:18:08;-2.90;66.00
83828;DHT22;74656;48.870;12.562;2024-01-10T18:21:09;-2.70;69.10
83828;DHT22;74656;48.870;12.562;2024-01-10T18:24:11;-2.60;73.10
83828;DHT22;74656;48.870;12.562;2024-01-10T18:27:13;-2.80;69.80
83828;DHT22;74656;48.870;12.562;2024-01-10T18:30:15;-2.90;68.00
83828;DHT22;74656;48.870;12.562;2024-01-10T18:33:17;-3.00;67.40
83828;DHT22;74656;48.870;12.562;2024-01-10T18:36:19;-3.20;67.00
83828;DHT22;74656;48.870;12.562;2024-01-10T18:39:21;-3.20;68.10
83828;DHT22;74656;48.870;12.562;2024-01-10T18:42:23;-3.20;67.70
83828;DHT22;74656;48.870;12.562;2024-01-10T18:45:25;-3.30;67.50
83828;DHT22;74656;48.870;12.562;2024-01-10T18:48:26;-3.40;67.20
83828;DHT22;74656;48.870;12.562;2024-01-10T18:51:28;-3.40;67.10
83828;DHT22;74656;48.870;12.562;2024-01-10T18:54:30;-3.50;67.40
83828;DHT22;74656;48.870;12.562;2024-01-10T18:57:32;-3.60;67.60
83828;DHT22;74656;48.870;12.562;2024-01-10T19:00:33;-3.60;67.60
83828;DHT22;74656;48.870;12.562;2024-01-10T19:03:35;-3.60;67.70
83828;DHT22;74656;48.870;12.562;2024-01-10T19:06:37;-3.60;68.10